Arietta, New York
Current Conditions -  °F | °C
As of 8:55 AM on Thursday 30 Oct 2014 (Local Time) from KNY0 Reporting Station
Scattered Clouds Scattered Clouds  
Wind Chill: 38°   Ceiling: Unl
Heat Index: 42°   Visibility: 10mi
Dew Point: 38°   Wind: 8mph
Humidity: 83%   Direction: 270°W
Pressure: 29.98"   Gusts: NA
Location:  43.5975°N, 74.5775°W
Report Text: KNY0 301255Z AUTO 27007KT 10SM SCT015 SCT023 06/03 A2998 RMK AO2 T00580031
Loading
Personal Weather Stations






























Interactive Weather Map
Tropical Storm Tracking
New forecast layout! Learn more

10-Day Weather Forecast

Advertisements
Track Severe Weather on mobile